createdAt,value
2022-11-20T00:01:52.748Z,96937.13
2022-11-20T00:04:19.423Z,96934.09
2022-11-20T00:06:46.045Z,96936.69
2022-11-20T00:09:12.713Z,96935.06
2022-11-20T00:11:39.323Z,96931.34
2022-11-20T00:14:05.974Z,96945.41
2022-11-20T00:16:32.605Z,96946.88
2022-11-20T00:18:59.248Z,96946.06
2022-11-20T00:21:25.894Z,96941.19
2022-11-20T00:23:54.960Z,96938.38
2022-11-20T00:26:21.849Z,96944.91
2022-11-20T00:28:50.778Z,96946.59
2022-11-20T00:31:17.370Z,96954.63
2022-11-20T00:33:43.991Z,96950.25
2022-11-20T00:36:10.605Z,96944.31
2022-11-20T00:38:37.249Z,96956.69
2022-11-20T00:41:03.907Z,96958.59
2022-11-20T00:43:30.527Z,96945.09
2022-11-20T00:45:57.183Z,96970.25
2022-11-20T00:48:23.838Z,96959.38
2022-11-20T00:50:50.446Z,96963.84
2022-11-20T00:53:17.074Z,96968.97
2022-11-20T00:55:43.731Z,96958.56
2022-11-20T00:58:14.189Z,96960.88
2022-11-20T01:00:41.133Z,96961.53
2022-11-20T01:03:07.744Z,96970.94
2022-11-20T01:05:34.411Z,96980.53
2022-11-20T01:08:01.007Z,96985.78
2022-11-20T01:10:27.658Z,96982.03
2022-11-20T01:12:54.258Z,96986.78
2022-11-20T01:15:20.936Z,96986.84
2022-11-20T01:17:47.593Z,96990.63
2022-11-20T01:20:14.249Z,96996.69
2022-11-20T01:22:40.933Z,96985.16
2022-11-20T01:25:07.529Z,96985.56
2022-11-20T01:27:34.157Z,96983.47
2022-11-20T01:30:01.387Z,96988.50
2022-11-20T01:32:28.266Z,96980.53
2022-11-20T01:34:54.878Z,96986.81
2022-11-20T01:37:21.539Z,96978.47
2022-11-20T01:39:48.201Z,96969.31
2022-11-20T01:42:14.865Z,96982.94
2022-11-20T01:44:41.539Z,96964.53
2022-11-20T01:47:08.175Z,96972.19
2022-11-20T01:49:34.784Z,96973.13
2022-11-20T01:52:01.473Z,96974.59
2022-11-20T01:54:28.155Z,96972.63
2022-11-20T01:56:54.807Z,96971.03
2022-11-20T01:59:21.945Z,96976.97
2022-11-20T02:01:48.880Z,96975.78
2022-11-20T02:04:15.555Z,96969.75
2022-11-20T02:06:42.683Z,96961.16
2022-11-20T02:09:09.317Z,96966.50
2022-11-20T02:11:35.908Z,96963.25
2022-11-20T02:14:02.557Z,96966.97
2022-11-20T02:16:29.178Z,96962.22
2022-11-20T02:18:55.781Z,96958.13
2022-11-20T02:21:22.396Z,96958.97
2022-11-20T02:23:49.027Z,96959.13
2022-11-20T02:26:15.661Z,96955.78
2022-11-20T02:28:42.257Z,96952.16
2022-11-20T02:31:08.834Z,96950.34
2022-11-20T02:33:35.541Z,96952.78
2022-11-20T02:36:02.207Z,96960.56
2022-11-20T02:38:28.831Z,96959.84
2022-11-20T02:40:55.956Z,96952.66
2022-11-20T02:43:22.699Z,96949.22
2022-11-20T02:45:49.280Z,96947.34
2022-11-20T02:48:15.876Z,96941.38
2022-11-20T02:50:42.533Z,96934.69
2022-11-20T02:53:09.162Z,96927.47
2022-11-20T02:55:35.846Z,96925.69
2022-11-20T02:58:02.497Z,96929.09
2022-11-20T03:00:29.166Z,96925.13
2022-11-20T03:02:55.773Z,96920.97
2022-11-20T03:05:22.422Z,96925.84
2022-11-20T03:07:49.039Z,96934.16
2022-11-20T03:10:15.613Z,96925.69
2022-11-20T03:12:42.225Z,96926.50
2022-11-20T03:15:08.850Z,96927.81
2022-11-20T03:17:35.476Z,96937.81
2022-11-20T03:20:02.084Z,96943.53
2022-11-20T03:22:28.710Z,96937.75
2022-11-20T03:24:55.320Z,96929.75
2022-11-20T03:27:21.960Z,96936.59
2022-11-20T03:29:48.567Z,96935.59
2022-11-20T03:32:15.167Z,96923.72
2022-11-20T03:34:41.763Z,96934.34
2022-11-20T03:37:08.374Z,96931.00
2022-11-20T03:39:35.015Z,96934.69
2022-11-20T03:42:01.682Z,96927.22
2022-11-20T03:44:28.295Z,96928.47
2022-11-20T03:46:54.945Z,96918.47
2022-11-20T03:49:21.964Z,96928.59
2022-11-20T03:51:48.833Z,96922.34
2022-11-20T03:54:15.462Z,96931.72
2022-11-20T03:56:42.065Z,96923.59
2022-11-20T03:59:08.668Z,96926.69
2022-11-20T04:01:35.389Z,96926.84
2022-11-20T04:04:02.029Z,96918.13
2022-11-20T04:06:28.640Z,96910.50
2022-11-20T04:08:55.225Z,96903.47
2022-11-20T04:11:21.845Z,96901.06
2022-11-20T04:13:48.552Z,96905.66
2022-11-20T04:16:15.193Z,96907.09
2022-11-20T04:18:41.789Z,96907.09
2022-11-20T04:21:08.410Z,96892.47
2022-11-20T04:23:35.003Z,96891.03
2022-11-20T04:26:01.625Z,96904.31
2022-11-20T04:28:28.212Z,96898.97
2022-11-20T04:30:54.853Z,96901.94
2022-11-20T04:33:21.516Z,96893.06
2022-11-20T04:35:48.121Z,96883.91
2022-11-20T04:38:14.706Z,96872.00
2022-11-20T04:40:41.343Z,96872.19
2022-11-20T04:43:07.988Z,96882.31
2022-11-20T04:45:34.621Z,96877.16
2022-11-20T04:48:01.282Z,96871.75
2022-11-20T04:50:27.969Z,96866.69
2022-11-20T04:52:54.636Z,96867.34
2022-11-20T04:55:21.234Z,96859.28
2022-11-20T04:57:47.881Z,96867.13
2022-11-20T05:00:14.512Z,96869.94
2022-11-20T05:02:41.448Z,96869.66
2022-11-20T05:05:08.101Z,96868.50
2022-11-20T05:07:34.824Z,96866.78
2022-11-20T05:10:01.467Z,96868.75
2022-11-20T05:12:28.109Z,96869.38
2022-11-20T05:14:54.889Z,96869.81
2022-11-20T05:17:21.551Z,96873.09
2022-11-20T05:19:52.021Z,96862.91
2022-11-20T05:22:19.738Z,96870.84
2022-11-20T05:24:46.678Z,96869.75
2022-11-20T05:27:13.333Z,96866.78
2022-11-20T05:29:39.956Z,96872.44
2022-11-20T05:32:06.624Z,96874.06
2022-11-20T05:34:33.220Z,96876.91
2022-11-20T05:36:59.852Z,96879.44
2022-11-20T05:39:26.470Z,96884.59
2022-11-20T05:41:53.095Z,96876.78
2022-11-20T05:44:19.743Z,96875.41
2022-11-20T05:46:46.373Z,96879.38
2022-11-20T05:49:13.015Z,96886.13
2022-11-20T05:51:39.702Z,96888.28
2022-11-20T05:54:06.396Z,96898.41
2022-11-20T05:56:33.066Z,96899.59
2022-11-20T05:58:59.710Z,96894.44
2022-11-20T06:01:26.373Z,96884.44
2022-11-20T06:03:52.976Z,96886.44
2022-11-20T06:06:19.594Z,96895.53
2022-11-20T06:08:46.243Z,96900.31
2022-11-20T06:11:12.836Z,96903.19
2022-11-20T06:13:42.350Z,96904.00
2022-11-20T06:16:09.302Z,96901.63
2022-11-20T06:18:35.958Z,96897.28
2022-11-20T06:21:02.560Z,96898.41
2022-11-20T06:23:29.190Z,96901.09
2022-11-20T06:25:55.812Z,96918.53
2022-11-20T06:28:22.458Z,96919.06
2022-11-20T06:30:49.123Z,96915.38
2022-11-20T06:33:15.770Z,96913.47
2022-11-20T06:35:42.490Z,96914.47
2022-11-20T06:38:09.178Z,96916.16
2022-11-20T06:40:35.828Z,96927.53
2022-11-20T06:43:02.460Z,96928.13
2022-11-20T06:45:29.105Z,96927.25
2022-11-20T06:47:55.729Z,96924.13
2022-11-20T06:50:22.312Z,96935.25
2022-11-20T06:52:48.969Z,96931.66
2022-11-20T06:55:15.605Z,96932.97
2022-11-20T06:57:42.247Z,96934.63
2022-11-20T07:00:08.930Z,96931.94
2022-11-20T07:02:35.562Z,96932.47
2022-11-20T07:05:02.222Z,96939.13
2022-11-20T07:07:28.880Z,96942.69
2022-11-20T07:09:55.523Z,96955.97
2022-11-20T07:12:22.187Z,96961.63
2022-11-20T07:14:48.797Z,96957.34
2022-11-20T07:17:15.450Z,96964.13
2022-11-20T07:19:42.115Z,96961.09
2022-11-20T07:22:08.760Z,96972.38
2022-11-20T07:24:35.437Z,96961.91
2022-11-20T07:27:02.064Z,96957.19
2022-11-20T07:29:28.701Z,96972.00
2022-11-20T07:31:55.329Z,96964.88
2022-11-20T07:34:22.021Z,96972.28
2022-11-20T07:36:48.601Z,96963.44
2022-11-20T07:39:15.219Z,96969.47
2022-11-20T07:41:41.850Z,96965.88
2022-11-20T07:44:08.506Z,96971.72
2022-11-20T07:46:35.128Z,96973.53
2022-11-20T07:49:01.799Z,96969.22
2022-11-20T07:51:28.511Z,96971.34
2022-11-20T07:53:55.140Z,96966.75
2022-11-20T07:56:21.743Z,96963.88
2022-11-20T07:58:48.400Z,96968.38
2022-11-20T08:01:15.104Z,96969.44
2022-11-20T08:03:41.797Z,96983.91
2022-11-20T08:06:08.436Z,96985.81
2022-11-20T08:08:38.860Z,96985.91
2022-11-20T08:11:08.986Z,96979.19
2022-11-20T08:13:35.612Z,96982.00
2022-11-20T08:16:02.253Z,96988.00
2022-11-20T08:18:31.806Z,96983.53
2022-11-20T08:20:58.953Z,96986.97
2022-11-20T08:23:25.552Z,96989.69
2022-11-20T08:25:52.333Z,96988.22
2022-11-20T08:28:21.581Z,96997.63
2022-11-20T08:30:48.643Z,96995.09
2022-11-20T08:33:15.310Z,97002.78
2022-11-20T08:35:42.059Z,97000.88
2022-11-20T08:38:08.663Z,97007.69
2022-11-20T08:40:35.333Z,97009.72
2022-11-20T08:43:02.005Z,97014.94
2022-11-20T08:45:33.773Z,97012.19
2022-11-20T08:48:01.450Z,97017.06
2022-11-20T08:50:28.059Z,97006.84
2022-11-20T08:52:54.752Z,97013.50
2022-11-20T08:55:21.395Z,97013.16
2022-11-20T08:57:50.764Z,97024.44
2022-11-20T09:00:17.578Z,97025.88
2022-11-20T09:02:44.223Z,97025.28
2022-11-20T09:05:10.898Z,97012.56
2022-11-20T09:07:37.571Z,97015.03
2022-11-20T09:10:23.050Z,97016.84
2022-11-20T09:12:50.498Z,97028.16
2022-11-20T09:15:17.125Z,97022.53
2022-11-20T09:17:43.722Z,97022.72
2022-11-20T09:20:10.378Z,97018.44
2022-11-20T09:22:37.039Z,97015.25
2022-11-20T09:25:03.706Z,97013.13
2022-11-20T09:27:30.372Z,97015.38
2022-11-20T09:29:57.060Z,97016.66
2022-11-20T09:32:23.658Z,97024.31
2022-11-20T09:34:50.354Z,97025.66
2022-11-20T09:37:17.026Z,97011.31
2022-11-20T09:39:43.674Z,97014.81
2022-11-20T09:42:10.283Z,97012.19
2022-11-20T09:44:36.982Z,97003.22
2022-11-20T09:47:03.632Z,97001.78
2022-11-20T09:49:32.641Z,97000.72
2022-11-20T09:51:59.599Z,97008.25
2022-11-20T09:54:26.287Z,97003.22
2022-11-20T09:56:53.912Z,96996.59
2022-11-20T09:59:20.789Z,97004.94
2022-11-20T10:01:47.708Z,96998.38
2022-11-20T10:04:20.582Z,96988.25
2022-11-20T10:06:59.498Z,96989.75
2022-11-20T10:09:34.552Z,96982.47
2022-11-20T10:12:01.234Z,96983.81
2022-11-20T10:14:27.850Z,96980.25
2022-11-20T10:16:54.503Z,96979.19
2022-11-20T10:19:21.370Z,96980.25
2022-11-20T10:21:48.267Z,96972.88
2022-11-20T10:24:14.902Z,96972.09
2022-11-20T10:26:41.494Z,96967.59
2022-11-20T10:29:09.092Z,96965.28
2022-11-20T10:31:35.942Z,96962.84
2022-11-20T10:34:12.012Z,96962.34
2022-11-20T10:36:39.741Z,96963.59
2022-11-20T10:39:06.435Z,96968.34
2022-11-20T10:41:35.914Z,96963.16
2022-11-20T10:44:03.793Z,96967.88
2022-11-20T10:46:30.391Z,96961.22
2022-11-20T10:48:57.046Z,96958.56
2022-11-20T10:51:23.732Z,96964.44
2022-11-20T10:53:50.374Z,96960.81
2022-11-20T10:56:17.077Z,96956.56
2022-11-20T10:58:43.726Z,96959.38
2022-11-20T11:01:10.439Z,96956.53
2022-11-20T11:03:37.134Z,96958.16
2022-11-20T11:06:03.839Z,96952.09
2022-11-20T11:08:30.494Z,96944.19
2022-11-20T11:10:57.170Z,96947.00
2022-11-20T11:13:23.848Z,96948.84
2022-11-20T11:15:50.532Z,96951.69
2022-11-20T11:18:17.150Z,96945.53
2022-11-20T11:20:43.796Z,96956.72
2022-11-20T11:23:10.491Z,96949.69
2022-11-20T11:25:37.255Z,96954.13
2022-11-20T11:28:03.883Z,96946.63
2022-11-20T11:30:30.512Z,96950.25
2022-11-20T11:32:57.153Z,96947.81
2022-11-20T11:35:23.841Z,96943.50
2022-11-20T11:37:50.446Z,96938.34
2022-11-20T11:40:23.760Z,96935.63
2022-11-20T11:42:50.824Z,96940.25
2022-11-20T11:45:17.473Z,96941.56
2022-11-20T11:47:44.152Z,96940.97
2022-11-20T11:50:11.124Z,96940.13
2022-11-20T11:52:37.787Z,96933.88
2022-11-20T11:55:10.073Z,96933.31
2022-11-20T11:57:38.205Z,96937.66
2022-11-20T12:00:04.853Z,96933.88
2022-11-20T12:02:31.539Z,96934.13
2022-11-20T12:04:58.187Z,96929.56
2022-11-20T12:07:45.532Z,96939.53
2022-11-20T12:10:11.434Z,96928.09
2022-11-20T12:12:38.028Z,96929.72
2022-11-20T12:15:04.709Z,96932.09
2022-11-20T12:17:31.366Z,96928.59
2022-11-20T12:19:57.999Z,96925.47
2022-11-20T12:22:24.647Z,96930.34
2022-11-20T12:24:51.347Z,96930.25
2022-11-20T12:27:17.981Z,96924.13
2022-11-20T12:29:44.616Z,96917.94
2022-11-20T12:32:11.299Z,96925.69
2022-11-20T12:34:37.957Z,96925.81
2022-11-20T12:37:04.556Z,96926.06
2022-11-20T12:39:31.191Z,96918.16
2022-11-20T12:41:57.810Z,96920.97
2022-11-20T12:44:24.405Z,96917.25
2022-11-20T12:46:51.366Z,96921.84
2022-11-20T12:49:18.030Z,96913.91
2022-11-20T12:51:44.724Z,96919.00
2022-11-20T12:54:11.333Z,96914.25
2022-11-20T12:56:37.921Z,96915.75
2022-11-20T12:59:04.619Z,96918.25
2022-11-20T13:01:31.242Z,96912.50
2022-11-20T13:03:57.886Z,96914.88
2022-11-20T13:06:24.520Z,96913.47
2022-11-20T13:08:51.167Z,96913.59
2022-11-20T13:11:17.757Z,96905.16
2022-11-20T13:13:44.382Z,96906.09
2022-11-20T13:16:14.399Z,96901.44
2022-11-20T13:18:41.825Z,96907.00
2022-11-20T13:21:08.433Z,96901.44
2022-11-20T13:23:35.066Z,96894.47
2022-11-20T13:26:01.712Z,96894.59
2022-11-20T13:28:28.439Z,96897.00
2022-11-20T13:30:55.042Z,96889.78
2022-11-20T13:33:21.709Z,96896.94
2022-11-20T13:35:48.384Z,96887.94
2022-11-20T13:38:15.022Z,96891.25
2022-11-20T13:40:44.674Z,96895.13
2022-11-20T13:43:11.354Z,96887.88
2022-11-20T13:45:38.051Z,96886.16
2022-11-20T13:48:04.711Z,96888.88
2022-11-20T13:50:31.373Z,96888.13
2022-11-20T13:52:58.043Z,96889.06
2022-11-20T13:55:24.652Z,96885.34
2022-11-20T13:57:52.184Z,96891.53
2022-11-20T14:00:19.000Z,96886.25
2022-11-20T14:02:45.667Z,96883.44
2022-11-20T14:05:12.253Z,96877.28
2022-11-20T14:07:38.918Z,96878.44
2022-11-20T14:10:05.646Z,96887.16
2022-11-20T14:12:32.349Z,96880.88
2022-11-20T14:14:59.028Z,96874.66
2022-11-20T14:17:25.672Z,96870.94
2022-11-20T14:19:52.278Z,96876.66
2022-11-20T14:22:18.930Z,96879.41
2022-11-20T14:24:45.555Z,96872.81
2022-11-20T14:27:12.219Z,96871.13
2022-11-20T14:29:38.871Z,96864.44
2022-11-20T14:32:05.535Z,96868.25
2022-11-20T14:34:32.199Z,96867.34
2022-11-20T14:36:58.835Z,96862.66
2022-11-20T14:39:25.521Z,96873.03
2022-11-20T14:41:52.195Z,96871.06
2022-11-20T14:44:18.867Z,96867.59
2022-11-20T14:46:45.593Z,96867.06
2022-11-20T14:49:12.292Z,96868.81
2022-11-20T14:51:38.949Z,96869.44
2022-11-20T14:54:05.630Z,96862.19
2022-11-20T14:56:32.273Z,96865.84
2022-11-20T14:58:58.903Z,96874.19
2022-11-20T15:01:25.509Z,96877.66
2022-11-20T15:03:52.243Z,96881.56
2022-11-20T15:06:18.884Z,96884.81
2022-11-20T15:08:45.551Z,96894.97
2022-11-20T15:11:12.195Z,96895.78
2022-11-20T15:13:38.846Z,96898.25
2022-11-20T15:16:05.543Z,96890.34
2022-11-20T15:18:32.584Z,96886.50
2022-11-20T15:20:59.223Z,96894.63
2022-11-20T15:23:25.878Z,96896.03
2022-11-20T15:25:52.534Z,96897.84
2022-11-20T15:28:19.169Z,96896.81
2022-11-20T15:30:45.815Z,96901.25
2022-11-20T15:33:12.496Z,96902.44
2022-11-20T15:35:39.119Z,96900.97
2022-11-20T15:38:05.792Z,96896.88
2022-11-20T15:40:32.433Z,96904.75
2022-11-20T15:42:59.115Z,96908.00
2022-11-20T15:45:25.714Z,96904.72
2022-11-20T15:47:52.361Z,96900.66
2022-11-20T15:50:19.044Z,96907.38
2022-11-20T15:52:45.673Z,96913.56
2022-11-20T15:55:12.323Z,96911.66
2022-11-20T15:57:38.931Z,96916.22
2022-11-20T16:00:05.575Z,96914.88
2022-11-20T16:02:32.221Z,96919.72
2022-11-20T16:04:58.884Z,96914.88
2022-11-20T16:07:25.620Z,96915.25
2022-11-20T16:09:52.359Z,96915.19
2022-11-20T16:12:18.999Z,96919.63
2022-11-20T16:14:45.682Z,96916.47
2022-11-20T16:17:12.302Z,96927.78
2022-11-20T16:19:38.946Z,96923.44
2022-11-20T16:22:05.615Z,96933.06
2022-11-20T16:24:32.308Z,96939.31
2022-11-20T16:26:58.967Z,96938.38
2022-11-20T16:29:25.549Z,96941.00
2022-11-20T16:31:52.194Z,96940.09
2022-11-20T16:34:18.849Z,96939.69
2022-11-20T16:36:45.525Z,96937.56
2022-11-20T16:39:12.191Z,96939.66
2022-11-20T16:41:38.843Z,96934.81
2022-11-20T16:44:05.545Z,96933.00
2022-11-20T16:46:32.205Z,96938.31
2022-11-20T16:48:58.869Z,96930.63
2022-11-20T16:51:25.542Z,96931.66
2022-11-20T16:53:52.213Z,96937.13
2022-11-20T16:56:18.941Z,96937.44
2022-11-20T16:58:45.660Z,96944.59
2022-11-20T17:01:12.303Z,96937.91
2022-11-20T17:03:38.991Z,96935.75
2022-11-20T17:06:05.642Z,96936.19
2022-11-20T17:08:32.419Z,96933.44
2022-11-20T17:13:43.276Z,96936.31
2022-11-20T17:16:09.922Z,96928.97
2022-11-20T17:18:36.568Z,96932.22
2022-11-20T17:21:03.234Z,96925.50
2022-11-20T17:23:29.886Z,96926.97
2022-11-20T17:25:56.480Z,96932.72
2022-11-20T17:28:23.147Z,96923.22
2022-11-20T17:30:49.756Z,96934.56
2022-11-20T17:33:16.401Z,96926.34
2022-11-20T17:35:43.043Z,96938.69
2022-11-20T17:38:09.663Z,96932.78
2022-11-20T17:40:36.257Z,96927.22
2022-11-20T17:43:02.887Z,96926.72
2022-11-20T17:45:29.583Z,96931.78
2022-11-20T17:47:56.242Z,96924.88
2022-11-20T17:50:22.862Z,96921.31
2022-11-20T17:52:49.554Z,96913.41
2022-11-20T17:55:16.196Z,96911.28
2022-11-20T17:57:42.817Z,96914.94
2022-11-20T18:00:09.454Z,96915.31
2022-11-20T18:02:36.098Z,96906.06
2022-11-20T18:05:02.754Z,96902.31
2022-11-20T18:07:29.433Z,96899.41
2022-11-20T18:09:56.161Z,96899.88
2022-11-20T18:12:22.788Z,96892.56
2022-11-20T18:14:49.464Z,96887.97
2022-11-20T18:17:16.149Z,96886.13
2022-11-20T18:19:55.715Z,96886.41
2022-11-20T18:22:29.412Z,96889.59
2022-11-20T18:24:56.058Z,96891.25
2022-11-20T18:27:22.756Z,96886.94
2022-11-20T18:29:49.364Z,96876.84
2022-11-20T18:32:15.972Z,96870.66
2022-11-20T18:34:42.619Z,96870.47
2022-11-20T18:37:09.289Z,96867.88
2022-11-20T18:39:35.945Z,96863.44
2022-11-20T18:42:02.538Z,96859.59
2022-11-20T18:44:29.201Z,96862.31
2022-11-20T18:46:55.828Z,96853.97
2022-11-20T18:49:22.418Z,96864.22
2022-11-20T18:51:49.118Z,96864.28
2022-11-20T18:54:15.786Z,96873.84
2022-11-20T18:56:42.408Z,96866.34
2022-11-20T18:59:09.038Z,96863.16
2022-11-20T19:01:35.737Z,96873.28
2022-11-20T19:04:02.428Z,96872.13
2022-11-20T19:06:29.045Z,96870.78
2022-11-20T19:08:58.659Z,96874.09
2022-11-20T19:11:25.302Z,96879.94
2022-11-20T19:13:51.930Z,96874.94
2022-11-20T19:16:19.556Z,96874.94
2022-11-20T19:18:46.192Z,96878.16
2022-11-20T19:21:12.809Z,96875.66
2022-11-20T19:23:39.478Z,96878.03
2022-11-20T19:26:06.149Z,96881.19
2022-11-20T19:28:32.804Z,96878.97
2022-11-20T19:31:00.776Z,96878.00
2022-11-20T19:33:27.400Z,96873.91
2022-11-20T19:35:54.011Z,96866.56
2022-11-20T19:38:20.689Z,96877.03
2022-11-20T19:40:47.335Z,96874.56
2022-11-20T19:43:14.030Z,96873.88
2022-11-20T19:45:40.634Z,96868.97
2022-11-20T19:48:08.461Z,96861.38
2022-11-20T19:50:37.445Z,96858.97
2022-11-20T19:53:04.097Z,96858.13
2022-11-20T19:55:30.787Z,96859.81
2022-11-20T19:57:57.424Z,96861.38
2022-11-20T20:00:29.549Z,96864.22
2022-11-20T20:02:59.143Z,96862.72
2022-11-20T20:05:25.817Z,96853.19
2022-11-20T20:07:52.467Z,96858.75
2022-11-20T20:10:19.116Z,96871.03
2022-11-20T20:12:45.760Z,96865.56
2022-11-20T20:15:12.383Z,96865.47
2022-11-20T20:17:39.142Z,96873.25
2022-11-20T20:20:05.817Z,96869.75
2022-11-20T20:22:32.485Z,96882.31
2022-11-20T20:25:02.196Z,96879.97
2022-11-20T20:27:28.852Z,96878.03
2022-11-20T20:29:55.838Z,96881.22
2022-11-20T20:32:22.472Z,96872.00
2022-11-20T20:34:49.092Z,96870.56
2022-11-20T20:37:15.725Z,96876.16
2022-11-20T20:39:42.407Z,96875.19
2022-11-20T20:42:09.027Z,96885.19
2022-11-20T20:44:35.656Z,96876.63
2022-11-20T20:47:02.282Z,96873.97
2022-11-20T20:52:13.169Z,96870.44
2022-11-20T20:54:39.822Z,96868.09
2022-11-20T20:57:06.451Z,96865.47
2022-11-20T20:59:33.046Z,96867.44
2022-11-20T21:01:59.715Z,96861.25
2022-11-20T21:04:26.346Z,96862.94
2022-11-20T21:06:52.988Z,96868.72
2022-11-20T21:09:19.625Z,96864.56
2022-11-20T21:11:46.288Z,96869.25
2022-11-20T21:14:12.962Z,96859.78
2022-11-20T21:16:39.619Z,96856.75
2022-11-20T21:19:06.329Z,96854.31
2022-11-20T21:21:32.943Z,96854.78
2022-11-20T21:23:59.587Z,96856.38
2022-11-20T21:26:26.253Z,96853.63
2022-11-20T21:28:52.898Z,96863.06
2022-11-20T21:31:19.610Z,96869.81
2022-11-20T21:33:47.254Z,96867.00
2022-11-20T21:36:13.932Z,96869.41
2022-11-20T21:38:42.742Z,96864.53
2022-11-20T21:41:09.381Z,96859.78
2022-11-20T21:43:36.083Z,96862.22
2022-11-20T21:46:02.705Z,96855.91
2022-11-20T21:48:29.322Z,96847.28
2022-11-20T21:50:55.916Z,96854.69
2022-11-20T21:53:22.537Z,96853.97
2022-11-20T21:55:49.165Z,96855.75
2022-11-20T21:58:15.824Z,96856.75
2022-11-20T22:00:42.479Z,96855.66
2022-11-20T22:03:09.172Z,96856.66
2022-11-20T22:05:35.772Z,96861.53
2022-11-20T22:08:02.485Z,96866.09
2022-11-20T22:10:29.119Z,96867.56
2022-11-20T22:12:55.766Z,96874.28
2022-11-20T22:15:53.275Z,96859.56
2022-11-20T22:18:09.014Z,96859.84
2022-11-20T22:20:35.619Z,96856.66
2022-11-20T22:23:02.287Z,96856.25
2022-11-20T22:25:28.912Z,96841.91
2022-11-20T22:27:55.580Z,96841.38
2022-11-20T22:30:22.266Z,96841.22
2022-11-20T22:32:48.887Z,96837.72
2022-11-20T22:35:15.547Z,96842.94
2022-11-20T22:37:42.716Z,96836.00
2022-11-20T22:40:09.385Z,96829.84
2022-11-20T22:42:36.066Z,96839.22
2022-11-20T22:45:02.685Z,96835.31
2022-11-20T22:47:29.340Z,96838.78
2022-11-20T22:49:55.988Z,96830.31
2022-11-20T22:52:22.679Z,96838.66
2022-11-20T22:54:49.343Z,96827.00
2022-11-20T22:57:16.008Z,96832.84
2022-11-20T22:59:42.710Z,96821.03
2022-11-20T23:02:09.381Z,96828.56
2022-11-20T23:04:36.050Z,96827.44
2022-11-20T23:07:02.831Z,96814.28
2022-11-20T23:09:29.551Z,96818.97
2022-11-20T23:11:56.172Z,96825.13
2022-11-20T23:14:27.547Z,96820.72
2022-11-20T23:16:54.570Z,96822.53
2022-11-20T23:19:21.222Z,96824.69
2022-11-20T23:21:47.856Z,96821.53
2022-11-20T23:24:14.506Z,96822.50
2022-11-20T23:26:41.139Z,96831.91
2022-11-20T23:29:07.832Z,96837.81
2022-11-20T23:31:34.539Z,96833.81
2022-11-20T23:34:01.170Z,96828.47
2022-11-20T23:36:27.793Z,96828.75
2022-11-20T23:38:54.425Z,96832.44
2022-11-20T23:41:21.087Z,96833.50
2022-11-20T23:43:47.719Z,96828.81
2022-11-20T23:46:16.837Z,96818.59
2022-11-20T23:48:43.772Z,96811.88
2022-11-20T23:51:10.426Z,96806.13
2022-11-20T23:53:37.052Z,96815.66
2022-11-20T23:56:03.685Z,96811.00
2022-11-20T23:58:30.351Z,96811.63
